Time;durP1;ratioP1;P1;durP2;ratioP2;P2;SDS_P1;SDS_P2;PMS_P1;PMS_P2;Temp;Humidity;BMP_temperature;BMP_pressure;BME280_temperature;BME280_humidity;BME280_pressure;Samples;Min_cycle;Max_cycle;Signal;HPM_P1;HPM_P2
2023/07/31 00:00:12;;;;;;;3.30;1.87;;;15.50;99.90;;;;;;5143494;28;20224;-46
2023/07/31 00:02:42;;;;;;;1.60;1.50;;;15.40;99.90;;;;;;5144676;28;20209;-44
2023/07/31 00:05:13;;;;;;;2.00;1.30;;;15.40;99.90;;;;;;5138487;28;20926;-46
2023/07/31 00:07:44;;;;;;;3.53;1.23;;;15.50;99.90;;;;;;5140098;28;20241;-45
2023/07/31 00:10:14;;;;;;;1.93;1.83;;;15.40;99.90;;;;;;5142349;28;20672;-45
2023/07/31 00:12:45;;;;;;;4.00;1.70;;;15.30;99.90;;;;;;5141299;28;20181;-45
2023/07/31 00:15:16;;;;;;;3.10;1.73;;;15.10;99.90;;;;;;5140122;28;20193;-45
2023/07/31 00:17:47;;;;;;;2.30;1.20;;;15.10;99.90;;;;;;5140641;28;20647;-44
2023/07/31 00:20:18;;;;;;;1.60;1.50;;;15.00;99.90;;;;;;5140063;28;20214;-44
2023/07/31 00:22:48;;;;;;;3.33;1.43;;;14.90;99.90;;;;;;5140359;28;20842;-45
2023/07/31 00:25:19;;;;;;;2.90;1.80;;;15.00;99.90;;;;;;5139193;28;20186;-46
2023/07/31 00:27:49;;;;;;;2.30;1.63;;;15.10;99.90;;;;;;5140069;28;20236;-44
2023/07/31 00:30:21;;;;;;;2.30;1.70;;;15.10;99.90;;;;;;5142184;28;20568;-45
2023/07/31 00:32:51;;;;;;;5.10;1.93;;;15.10;99.90;;;;;;5140853;28;20178;-44
2023/07/31 00:35:22;;;;;;;2.87;1.93;;;15.10;99.90;;;;;;5142080;28;20517;-44
2023/07/31 00:37:52;;;;;;;2.23;1.50;;;15.10;99.90;;;;;;5142425;28;20545;-45
2023/07/31 00:40:23;;;;;;;2.73;1.80;;;15.20;99.90;;;;;;5139221;28;20217;-45
2023/07/31 00:42:54;;;;;;;3.20;1.23;;;15.20;99.90;;;;;;5139536;28;20269;-44
2023/07/31 00:45:26;;;;;;;2.20;1.43;;;15.40;99.90;;;;;;5139342;28;20181;-45
2023/07/31 00:47:57;;;;;;;1.87;1.70;;;15.40;99.90;;;;;;5139623;28;20675;-45
2023/07/31 00:50:28;;;;;;;2.53;1.77;;;15.50;99.90;;;;;;5139630;28;20438;-44
2023/07/31 00:52:59;;;;;;;4.87;1.67;;;15.50;99.90;;;;;;5123797;28;20276;-44
2023/07/31 00:55:30;;;;;;;1.70;1.60;;;15.50;99.90;;;;;;5137656;28;20521;-45
2023/07/31 00:58:01;;;;;;;3.13;1.50;;;15.40;99.90;;;;;;5141276;28;20295;-46
2023/07/31 01:00:31;;;;;;;3.63;1.80;;;15.50;99.90;;;;;;5143186;28;20631;-46
2023/07/31 01:03:02;;;;;;;3.73;1.40;;;15.80;99.90;;;;;;5142987;28;20182;-45
2023/07/31 01:05:54;;;;;;;2.70;1.60;;;15.80;99.90;;;;;;5139844;28;20237;-46
2023/07/31 01:08:37;;;;;;;2.30;1.33;;;15.80;99.90;;;;;;5140980;28;20665;-46
2023/07/31 01:11:38;;;;;;;2.87;1.57;;;15.90;99.90;;;;;;5140576;28;20455;-46
2023/07/31 01:14:09;;;;;;;1.57;1.47;;;16.00;99.90;;;;;;5139169;28;20532;-45
2023/07/31 01:16:39;;;;;;;3.10;1.80;;;16.00;99.90;;;;;;5143981;28;20548;-45
2023/07/31 01:19:14;;;;;;;7.03;2.33;;;16.10;99.90;;;;;;5143776;28;20561;-45
2023/07/31 01:22:21;;;;;;;2.63;1.60;;;16.10;99.90;;;;;;5142337;28;20212;-45
2023/07/31 01:25:03;;;;;;;7.30;2.33;;;16.00;99.90;;;;;;5137157;28;20434;-46
2023/07/31 01:27:38;;;;;;;1.90;1.80;;;16.00;99.90;;;;;;5141781;28;20457;-44
2023/07/31 01:30:16;;;;;;;2.13;1.40;;;16.20;99.90;;;;;;5142778;28;20448;-45
2023/07/31 01:32:49;;;;;;;1.50;1.47;;;16.30;99.90;;;;;;5139436;28;20471;-45
2023/07/31 01:35:19;;;;;;;2.03;1.83;;;16.10;99.90;;;;;;5137818;28;20958;-45
2023/07/31 01:37:53;;;;;;;5.33;1.77;;;15.90;99.90;;;;;;5145788;28;20601;-46
2023/07/31 01:40:23;;;;;;;4.00;1.80;;;15.90;99.90;;;;;;5144063;28;20209;-45
2023/07/31 01:42:54;;;;;;;3.23;1.93;;;15.70;99.90;;;;;;5142295;28;20432;-45
2023/07/31 01:45:24;;;;;;;6.47;1.90;;;15.60;99.90;;;;;;5142579;28;20178;-47
2023/07/31 01:47:55;;;;;;;7.63;1.73;;;15.60;99.90;;;;;;5139264;28;20198;-46
2023/07/31 01:50:26;;;;;;;2.63;2.30;;;15.60;99.90;;;;;;5143199;28;20188;-46
2023/07/31 01:52:56;;;;;;;3.33;1.70;;;15.50;99.90;;;;;;5141763;28;20244;-47
2023/07/31 01:55:27;;;;;;;2.70;1.60;;;15.50;99.90;;;;;;5142697;28;20182;-47
2023/07/31 01:57:57;;;;;;;1.80;1.40;;;15.40;99.90;;;;;;5138933;28;20236;-47
2023/07/31 02:00:28;;;;;;;4.50;2.37;;;15.30;99.90;;;;;;5140651;28;20288;-46
2023/07/31 02:02:59;;;;;;;7.10;2.50;;;15.30;99.90;;;;;;5140789;28;20181;-46
2023/07/31 02:05:30;;;;;;;3.57;1.90;;;15.20;99.90;;;;;;5140616;28;20201;-46
2023/07/31 02:08:01;;;;;;;1.77;1.67;;;15.20;99.90;;;;;;5144665;28;20445;-46
2023/07/31 02:10:31;;;;;;;2.50;2.30;;;15.30;99.90;;;;;;5143033;28;20194;-46
2023/07/31 02:13:03;;;;;;;1.63;1.63;;;15.20;99.90;;;;;;5138263;28;20186;-46
2023/07/31 02:15:35;;;;;;;1.80;1.67;;;15.20;99.90;;;;;;5141741;28;20182;-46
2023/07/31 02:18:05;;;;;;;8.60;2.37;;;15.20;99.90;;;;;;5152587;23;21007;-50
2023/07/31 02:20:36;;;;;;;1.47;1.37;;;15.30;99.90;;;;;;5132046;28;20473;-48
2023/07/31 02:23:07;;;;;;;5.00;2.40;;;15.30;99.90;;;;;;5120674;28;20194;-48
2023/07/31 02:25:37;;;;;;;1.90;1.80;;;15.40;99.90;;;;;;5132644;28;20570;-47
2023/07/31 02:28:08;;;;;;;2.23;1.87;;;15.30;99.90;;;;;;5140812;28;20301;-47
2023/07/31 02:30:38;;;;;;;2.47;2.30;;;15.30;99.90;;;;;;5129815;28;20182;-48
2023/07/31 02:33:09;;;;;;;4.10;2.10;;;15.30;99.90;;;;;;5127835;28;20306;-47
2023/07/31 02:35:40;;;;;;;4.57;2.30;;;15.30;99.90;;;;;;5128515;28;20603;-48
2023/07/31 02:38:10;;;;;;;2.57;2.30;;;15.40;99.90;;;;;;5123318;28;20221;-49
2023/07/31 02:40:41;;;;;;;2.10;1.97;;;15.40;99.90;;;;;;5121154;28;20217;-48
2023/07/31 02:43:12;;;;;;;2.57;1.93;;;15.40;99.90;;;;;;5127638;28;20193;-47
2023/07/31 02:45:42;;;;;;;5.80;2.80;;;15.50;99.90;;;;;;5125766;29;20178;-47
2023/07/31 02:48:13;;;;;;;4.70;2.20;;;15.50;99.90;;;;;;5124725;28;20654;-47
2023/07/31 02:50:43;;;;;;;4.67;2.87;;;15.50;99.90;;;;;;5125438;29;20209;-48
2023/07/31 02:53:14;;;;;;;5.63;2.77;;;15.50;99.90;;;;;;5122237;28;20213;-48
2023/07/31 02:55:45;;;;;;;4.00;2.53;;;15.50;99.90;;;;;;5121364;28;20184;-49
2023/07/31 02:58:15;;;;;;;2.00;1.90;;;15.50;99.90;;;;;;5126505;28;20198;-47
2023/07/31 03:00:46;;;;;;;2.37;2.20;;;15.40;99.90;;;;;;5135947;28;20662;-48
2023/07/31 03:03:16;;;;;;;3.33;2.63;;;15.50;99.90;;;;;;5117656;28;20205;-48
2023/07/31 03:05:47;;;;;;;3.00;2.80;;;15.50;99.90;;;;;;5122475;29;20175;-49
2023/07/31 03:08:18;;;;;;;2.73;2.53;;;15.50;99.90;;;;;;5141710;28;20198;-48
2023/07/31 03:10:48;;;;;;;2.60;2.40;;;15.50;99.90;;;;;;5119025;28;20681;-48
2023/07/31 03:13:19;;;;;;;2.67;2.33;;;15.60;99.90;;;;;;5115040;28;20198;-47
2023/07/31 03:15:50;;;;;;;4.90;2.33;;;15.70;99.90;;;;;;5120787;28;20511;-48
2023/07/31 03:18:21;;;;;;;2.40;2.30;;;15.90;99.90;;;;;;5120129;28;20213;-48
2023/07/31 03:20:51;;;;;;;3.30;3.10;;;15.80;99.90;;;;;;5120893;28;20477;-48
2023/07/31 03:23:22;;;;;;;3.73;3.43;;;15.80;99.90;;;;;;5121289;28;20178;-49
2023/07/31 03:26:05;;;;;;;2.80;2.70;;;15.80;99.90;;;;;;5124237;29;20179;-48
2023/07/31 03:28:36;;;;;;;3.47;3.20;;;15.80;99.90;;;;;;5114786;28;20211;-48
2023/07/31 03:31:08;;;;;;;3.90;3.03;;;15.80;99.90;;;;;;5122952;28;20449;-48
2023/07/31 03:33:38;;;;;;;5.03;3.37;;;16.00;99.90;;;;;;5119684;28;20186;-47
2023/07/31 03:36:09;;;;;;;7.40;3.40;;;16.10;99.90;;;;;;5121182;29;20453;-51
2023/07/31 03:38:40;;;;;;;3.23;2.93;;;16.00;99.90;;;;;;5118265;29;20229;-47
2023/07/31 03:41:10;;;;;;;5.50;2.47;;;16.00;99.90;;;;;;5121153;29;20234;-47
2023/07/31 03:43:41;;;;;;;5.80;2.77;;;15.90;99.90;;;;;;5120091;28;20178;-49
2023/07/31 03:46:11;;;;;;;3.40;2.90;;;15.90;99.90;;;;;;5117736;29;20191;-49
2023/07/31 03:48:42;;;;;;;11.13;3.43;;;16.00;99.90;;;;;;5120717;28;20614;-46
2023/07/31 03:51:13;;;;;;;3.40;2.93;;;16.00;99.90;;;;;;5120074;29;20186;-47
2023/07/31 03:53:44;;;;;;;5.80;3.03;;;16.00;99.90;;;;;;5124173;28;20195;-47
2023/07/31 03:56:15;;;;;;;9.40;3.27;;;16.00;99.90;;;;;;5119754;28;20214;-47
2023/07/31 03:58:45;;;;;;;8.87;4.07;;;16.10;99.90;;;;;;5127337;28;20458;-48
2023/07/31 04:01:16;;;;;;;4.97;3.47;;;16.10;99.90;;;;;;5124723;28;20256;-46
2023/07/31 04:03:47;;;;;;;7.67;3.10;;;16.00;99.90;;;;;;5124818;28;20504;-47
2023/07/31 04:06:20;;;;;;;3.90;2.77;;;15.90;99.90;;;;;;5124014;29;20190;-47
2023/07/31 04:08:50;;;;;;;5.67;3.57;;;16.00;99.90;;;;;;5127242;28;20214;-47
2023/07/31 04:11:21;;;;;;;6.67;3.20;;;16.10;99.90;;;;;;5124624;28;20434;-48
2023/07/31 04:13:52;;;;;;;5.50;3.47;;;16.10;99.90;;;;;;5122706;28;20246;-48
2023/07/31 04:16:22;;;;;;;4.90;3.10;;;16.00;99.90;;;;;;5124954;29;20182;-47
2023/07/31 04:18:53;;;;;;;4.50;3.40;;;16.20;99.90;;;;;;5119350;29;20218;-47
2023/07/31 04:21:24;;;;;;;7.00;3.80;;;16.40;99.90;;;;;;5123487;28;20202;-50
2023/07/31 04:23:55;;;;;;;6.20;3.50;;;16.20;99.90;;;;;;5122003;28;20707;-49
2023/07/31 04:26:26;;;;;;;4.63;3.20;;;16.20;99.90;;;;;;5102940;29;20178;-47
2023/07/31 04:28:57;;;;;;;4.63;3.30;;;16.30;99.90;;;;;;5119665;29;20465;-48
2023/07/31 04:31:27;;;;;;;3.63;3.10;;;16.50;99.90;;;;;;5115277;28;20194;-48
2023/07/31 04:33:58;;;;;;;7.43;3.50;;;16.50;99.90;;;;;;5120410;28;20677;-47
2023/07/31 04:36:28;;;;;;;2.77;2.67;;;16.40;99.90;;;;;;5118518;28;20191;-47
2023/07/31 04:38:59;;;;;;;11.27;2.80;;;16.50;99.90;;;;;;5119020;28;20210;-48
2023/07/31 04:41:30;;;;;;;3.23;2.80;;;16.50;99.90;;;;;;5113369;28;20237;-47
2023/07/31 04:44:01;;;;;;;5.87;3.10;;;16.50;99.90;;;;;;5118845;28;20580;-48
2023/07/31 04:46:31;;;;;;;3.17;2.70;;;16.50;99.90;;;;;;5122033;29;20653;-47
2023/07/31 04:49:02;;;;;;;6.43;3.37;;;16.50;99.90;;;;;;5103617;28;20470;-48
2023/07/31 04:51:33;;;;;;;4.50;2.80;;;16.40;99.90;;;;;;5109004;28;20241;-48
2023/07/31 04:54:04;;;;;;;3.23;2.57;;;16.30;99.90;;;;;;5118025;28;20455;-47
2023/07/31 04:56:34;;;;;;;13.60;3.40;;;16.20;99.90;;;;;;5116965;28;20906;-47
2023/07/31 04:59:05;;;;;;;7.03;2.90;;;16.10;99.90;;;;;;5120050;28;26799;-48
2023/07/31 05:01:35;;;;;;;3.30;3.00;;;16.00;99.90;;;;;;5122200;28;20682;-48
2023/07/31 05:04:06;;;;;;;7.10;3.20;;;16.10;99.90;;;;;;5124002;28;20206;-48
2023/07/31 05:06:37;;;;;;;3.83;2.73;;;16.20;99.90;;;;;;5121754;28;20178;-47
2023/07/31 05:09:09;;;;;;;2.73;2.53;;;16.20;99.90;;;;;;5124116;28;20205;-48
2023/07/31 05:11:40;;;;;;;8.73;3.00;;;16.20;99.90;;;;;;5117101;28;20190;-47
2023/07/31 05:14:11;;;;;;;4.10;2.80;;;16.30;99.90;;;;;;5122737;28;20905;-47
2023/07/31 05:16:41;;;;;;;8.87;2.67;;;16.40;99.90;;;;;;5121241;28;20485;-48
2023/07/31 05:19:12;;;;;;;3.80;2.80;;;16.50;99.90;;;;;;5122581;28;20302;-48
2023/07/31 05:21:42;;;;;;;3.63;2.83;;;16.60;99.90;;;;;;5106651;29;20226;-48
2023/07/31 05:24:13;;;;;;;6.53;2.60;;;16.70;99.90;;;;;;5133174;28;20191;-48
2023/07/31 05:26:44;;;;;;;2.80;2.60;;;16.80;99.90;;;;;;5122930;28;20182;-47
2023/07/31 05:29:14;;;;;;;2.73;2.33;;;16.90;99.90;;;;;;5121996;28;20240;-47
2023/07/31 05:31:46;;;;;;;8.03;3.87;;;16.80;99.90;;;;;;5117860;28;20186;-47
2023/07/31 05:34:17;;;;;;;2.93;2.33;;;16.90;99.90;;;;;;5119963;28;20190;-51
2023/07/31 05:36:47;;;;;;;3.60;3.30;;;16.80;99.90;;;;;;5138298;28;20794;-48
2023/07/31 05:39:19;;;;;;;4.13;3.43;;;16.90;99.90;;;;;;5118720;28;20189;-48
2023/07/31 05:41:50;;;;;;;3.10;2.80;;;16.90;99.90;;;;;;5113627;28;20215;-49
2023/07/31 05:44:20;;;;;;;2.23;2.10;;;17.00;99.90;;;;;;5119152;28;20429;-49
2023/07/31 05:46:51;;;;;;;4.30;3.00;;;17.20;99.90;;;;;;5116299;28;20274;-48
2023/07/31 05:49:21;;;;;;;2.87;2.43;;;17.30;99.90;;;;;;5118848;28;20241;-49
2023/07/31 05:51:52;;;;;;;2.73;2.53;;;17.40;99.90;;;;;;5123215;28;20183;-47
2023/07/31 05:54:23;;;;;;;3.83;2.70;;;17.40;99.90;;;;;;5120403;28;20198;-47
2023/07/31 05:56:53;;;;;;;2.93;2.27;;;17.40;99.90;;;;;;5123374;28;20190;-48
2023/07/31 05:59:24;;;;;;;4.67;2.80;;;17.30;99.90;;;;;;5125209;29;20191;-48
2023/07/31 06:01:55;;;;;;;8.10;2.50;;;17.30;99.90;;;;;;5122152;28;20225;-49
2023/07/31 06:04:25;;;;;;;4.63;3.13;;;17.30;99.90;;;;;;5124610;28;20726;-48
2023/07/31 06:06:56;;;;;;;5.70;2.43;;;17.30;99.90;;;;;;5126524;29;20281;-48
2023/07/31 06:09:27;;;;;;;7.27;2.80;;;17.30;99.90;;;;;;5113884;28;20209;-48
2023/07/31 06:11:57;;;;;;;5.63;4.30;;;17.30;99.90;;;;;;5115509;28;20222;-49
2023/07/31 06:14:28;;;;;;;3.30;3.00;;;17.20;99.90;;;;;;5106995;28;20205;-51
2023/07/31 06:16:59;;;;;;;5.80;2.57;;;17.10;99.90;;;;;;5105454;28;20261;-47
2023/07/31 06:19:29;;;;;;;7.70;2.93;;;17.10;99.90;;;;;;5108724;28;20198;-47
2023/07/31 06:22:00;;;;;;;2.93;2.83;;;17.20;99.90;;;;;;5121157;28;20210;-47
2023/07/31 06:24:30;;;;;;;3.53;2.37;;;17.30;99.90;;;;;;5116995;28;20684;-48
2023/07/31 06:27:03;;;;;;;4.53;2.83;;;17.30;99.90;;;;;;5119056;28;20187;-48
2023/07/31 06:29:35;;;;;;;3.27;2.37;;;17.20;99.90;;;;;;5123416;28;20190;-48
2023/07/31 06:32:06;;;;;;;3.87;3.50;;;17.10;99.90;;;;;;5124257;28;20459;-47
2023/07/31 06:34:36;;;;;;;4.23;2.77;;;17.30;99.90;;;;;;5122101;28;20446;-47
2023/07/31 06:37:07;;;;;;;7.30;2.67;;;17.20;99.90;;;;;;5118314;28;20497;-48
2023/07/31 06:39:37;;;;;;;5.10;2.27;;;17.10;99.90;;;;;;5125423;29;20271;-49
2023/07/31 06:42:08;;;;;;;3.60;2.63;;;17.20;99.90;;;;;;5125227;28;20264;-48
2023/07/31 06:44:39;;;;;;;5.93;2.70;;;17.30;99.90;;;;;;5123912;29;20194;-51
2023/07/31 06:47:09;;;;;;;6.53;2.67;;;17.40;99.90;;;;;;5122546;28;20290;-47
2023/07/31 06:49:40;;;;;;;4.73;2.27;;;17.50;99.90;;;;;;5123028;28;20202;-47
2023/07/31 06:52:11;;;;;;;2.60;2.40;;;17.60;99.90;;;;;;5123418;28;20276;-48
2023/07/31 06:54:41;;;;;;;4.83;2.17;;;17.60;99.90;;;;;;5118989;28;20620;-47
2023/07/31 06:57:12;;;;;;;4.30;2.50;;;17.70;99.90;;;;;;5125182;28;20204;-47
2023/07/31 06:59:42;;;;;;;2.17;1.90;;;17.80;99.90;;;;;;5121447;28;20206;-47
2023/07/31 07:02:13;;;;;;;9.47;2.90;;;17.80;99.90;;;;;;5123905;28;20218;-49
2023/07/31 07:04:44;;;;;;;6.90;2.63;;;17.80;99.90;;;;;;5125704;28;20191;-49
2023/07/31 07:07:14;;;;;;;2.83;2.67;;;17.90;99.90;;;;;;5123529;28;20210;-48
2023/07/31 07:09:45;;;;;;;7.00;2.57;;;17.90;99.90;;;;;;5100929;28;20272;-48
2023/07/31 07:12:15;;;;;;;3.40;2.23;;;17.90;99.90;;;;;;5117514;29;20210;-48
2023/07/31 07:14:47;;;;;;;2.50;2.33;;;17.90;99.90;;;;;;5116812;28;20193;-49
2023/07/31 07:17:18;;;;;;;5.17;2.83;;;17.70;99.90;;;;;;5105167;28;20788;-48
2023/07/31 07:19:49;;;;;;;2.63;2.20;;;17.60;99.90;;;;;;5122903;28;20446;-48
2023/07/31 07:22:19;;;;;;;2.73;2.50;;;17.60;99.90;;;;;;5127609;28;20775;-47
2023/07/31 07:24:50;;;;;;;3.67;2.23;;;17.60;99.90;;;;;;5128436;28;20265;-48
2023/07/31 07:27:21;;;;;;;2.80;2.60;;;17.70;99.90;;;;;;5122623;28;20284;-47
2023/07/31 07:29:54;;;;;;;3.57;1.90;;;17.80;99.90;;;;;;5118541;28;20195;-48
2023/07/31 07:32:25;;;;;;;2.20;2.10;;;18.00;99.90;;;;;;5130925;28;20529;-49
2023/07/31 07:34:56;;;;;;;4.00;2.17;;;18.10;99.90;;;;;;5117963;28;20431;-50
2023/07/31 07:37:27;;;;;;;4.60;3.00;;;18.40;99.90;;;;;;5122638;28;20670;-48
2023/07/31 07:39:57;;;;;;;4.53;1.90;;;18.50;99.90;;;;;;5091796;28;21818;-48
2023/07/31 07:42:28;;;;;;;3.67;2.20;;;18.50;99.90;;;;;;5114418;28;20207;-48
2023/07/31 07:44:59;;;;;;;2.80;2.17;;;18.60;99.90;;;;;;5118741;28;20737;-48
2023/07/31 07:47:30;;;;;;;2.50;2.20;;;18.80;99.90;;;;;;5116964;28;20453;-48
2023/07/31 07:50:00;;;;;;;3.10;1.90;;;19.00;99.90;;;;;;5117568;28;20552;-48
2023/07/31 07:52:31;;;;;;;2.23;2.13;;;19.30;99.90;;;;;;5118558;28;20187;-48
2023/07/31 07:55:03;;;;;;;2.83;2.60;;;19.60;99.90;;;;;;5119321;28;20195;-48
2023/07/31 07:57:33;;;;;;;2.53;2.40;;;19.60;99.90;;;;;;5121213;28;20206;-52
2023/07/31 08:00:04;;;;;;;1.60;1.50;;;19.50;99.90;;;;;;5112932;28;20497;-49
2023/07/31 08:02:35;;;;;;;3.03;1.90;;;19.40;99.90;;;;;;5120348;28;20190;-51
2023/07/31 08:05:06;;;;;;;2.57;1.53;;;19.20;99.90;;;;;;5119774;28;20529;-50
2023/07/31 08:07:37;;;;;;;1.67;1.57;;;19.10;99.90;;;;;;5110360;28;20222;-47
2023/07/31 08:10:07;;;;;;;2.03;1.83;;;19.10;99.90;;;;;;5120669;28;20186;-49
2023/07/31 08:12:38;;;;;;;2.67;1.67;;;19.30;99.90;;;;;;5112323;29;20183;-49
2023/07/31 08:15:09;;;;;;;2.07;1.97;;;19.30;99.90;;;;;;5115170;28;20194;-49
2023/07/31 08:17:39;;;;;;;3.23;2.00;;;19.30;99.90;;;;;;5119420;28;20245;-50
2023/07/31 08:20:11;;;;;;;4.83;2.00;;;19.10;99.90;;;;;;5120544;28;20190;-50
2023/07/31 08:22:41;;;;;;;1.70;1.70;;;19.00;99.90;;;;;;5115374;28;20266;-49
2023/07/31 08:25:12;;;;;;;3.90;1.73;;;18.90;99.90;;;;;;5117300;28;20446;-48
2023/07/31 08:27:43;;;;;;;2.00;1.90;;;19.00;99.90;;;;;;5113080;29;20218;-49
2023/07/31 08:30:14;;;;;;;1.57;1.57;;;19.20;99.90;;;;;;5122213;28;20210;-50
2023/07/31 08:32:45;;;;;;;3.37;1.80;;;19.10;99.90;;;;;;5120737;28;20446;-49
2023/07/31 08:35:15;;;;;;;1.60;1.50;;;18.90;99.90;;;;;;5117849;28;20825;-48
2023/07/31 08:37:46;;;;;;;1.77;1.57;;;18.80;99.90;;;;;;5114846;28;20206;-49
2023/07/31 08:40:17;;;;;;;5.03;2.20;;;18.90;99.90;;;;;;5108422;28;20194;-49
2023/07/31 08:42:49;;;;;;;1.60;1.50;;;18.80;99.90;;;;;;5129431;28;20202;-48
2023/07/31 08:45:20;;;;;;;2.00;1.63;;;18.90;99.90;;;;;;5123302;28;21536;-51
2023/07/31 08:47:52;;;;;;;2.17;2.07;;;19.00;99.90;;;;;;5121781;28;20508;-49
2023/07/31 08:50:23;;;;;;;8.67;1.97;;;19.20;99.90;;;;;;5120374;28;20200;-47
2023/07/31 08:52:53;;;;;;;2.17;1.90;;;19.60;99.90;;;;;;5116929;28;20447;-49
2023/07/31 08:55:25;;;;;;;6.70;3.97;;;19.90;99.90;;;;;;5123424;28;20186;-50
2023/07/31 08:57:57;;;;;;;2.40;2.20;;;19.90;99.90;;;;;;5129766;28;20268;-49
2023/07/31 09:00:28;;;;;;;2.67;1.70;;;20.00;99.90;;;;;;5122967;28;20462;-49
2023/07/31 09:03:08;;;;;;;1.97;1.87;;;20.10;99.90;;;;;;5132272;28;20437;-48
2023/07/31 09:05:41;;;;;;;1.80;1.80;;;20.10;99.90;;;;;;5123840;28;20506;-48
2023/07/31 09:08:14;;;;;;;1.53;1.53;;;20.10;99.90;;;;;;5116979;29;21030;-50
2023/07/31 09:10:46;;;;;;;4.80;1.37;;;20.20;99.90;;;;;;5111404;28;20460;-48
2023/07/31 09:13:17;;;;;;;1.30;1.20;;;20.40;99.90;;;;;;5119839;28;20446;-48
2023/07/31 09:15:48;;;;;;;1.40;1.40;;;20.40;99.90;;;;;;5113711;28;20482;-49
2023/07/31 09:18:22;;;;;;;1.60;1.60;;;20.50;99.90;;;;;;5116043;28;20470;-47
2023/07/31 09:21:03;;;;;;;2.30;1.77;;;20.60;99.90;;;;;;5117109;28;20201;-49
2023/07/31 09:23:44;;;;;;;1.77;1.67;;;20.60;99.90;;;;;;5117216;28;20442;-48
2023/07/31 09:26:30;;;;;;;3.80;1.20;;;20.60;99.90;;;;;;5116573;28;20876;-49
2023/07/31 09:29:04;;;;;;;4.50;1.87;;;20.80;99.90;;;;;;5124279;28;20486;-49
2023/07/31 09:31:41;;;;;;;1.97;1.63;;;20.80;99.90;;;;;;5123752;28;20941;-48
2023/07/31 09:34:13;;;;;;;1.83;1.47;;;20.70;99.90;;;;;;5109709;29;21295;-48
2023/07/31 09:36:48;;;;;;;2.10;1.23;;;20.50;99.90;;;;;;5124585;28;20452;-49
2023/07/31 09:39:20;;;;;;;0.90;0.90;;;20.10;99.90;;;;;;5115134;28;20532;-48
2023/07/31 09:41:55;;;;;;;4.00;1.57;;;19.70;99.90;;;;;;5116932;28;20548;-48
2023/07/31 09:44:39;;;;;;;2.40;1.63;;;19.40;99.90;;;;;;5121521;28;20433;-48
2023/07/31 09:47:23;;;;;;;2.67;2.10;;;19.10;99.90;;;;;;5117701;28;20469;-49
2023/07/31 09:49:54;;;;;;;1.80;1.50;;;18.90;99.90;;;;;;5125004;28;20851;-50
2023/07/31 09:52:27;;;;;;;1.53;1.53;;;18.90;99.90;;;;;;5121811;28;20469;-49
2023/07/31 09:54:57;;;;;;;1.63;1.53;;;19.10;99.90;;;;;;5122850;28;20656;-48
2023/07/31 09:57:28;;;;;;;1.20;1.20;;;19.20;99.90;;;;;;5121767;28;20541;-49
2023/07/31 10:00:00;;;;;;;1.43;1.30;;;19.40;99.90;;;;;;5110412;28;20182;-48
2023/07/31 10:02:32;;;;;;;4.17;1.70;;;19.70;99.90;;;;;;5117058;29;20338;-47
2023/07/31 10:05:04;;;;;;;1.50;1.40;;;19.70;99.90;;;;;;5120906;28;20449;-49
2023/07/31 10:07:39;;;;;;;1.10;1.10;;;19.70;99.90;;;;;;5121354;28;20462;-48
2023/07/31 10:10:10;;;;;;;3.10;2.57;;;19.70;99.90;;;;;;5122094;28;20465;-48
2023/07/31 10:12:42;;;;;;;2.03;1.83;;;19.90;99.90;;;;;;5116936;28;20572;-50
2023/07/31 10:15:15;;;;;;;1.60;1.60;;;20.00;99.90;;;;;;5121980;28;20559;-48
2023/07/31 10:17:49;;;;;;;4.50;2.03;;;20.40;99.90;;;;;;5119652;28;20798;-49
2023/07/31 10:20:21;;;;;;;1.80;1.80;;;20.70;99.90;;;;;;5121655;28;20519;-49
2023/07/31 10:22:52;;;;;;;1.73;1.63;;;20.80;99.90;;;;;;5122949;28;20528;-48
2023/07/31 10:25:24;;;;;;;3.87;2.87;;;20.70;99.90;;;;;;5124562;28;20434;-50
2023/07/31 10:27:55;;;;;;;6.50;2.43;;;20.50;99.90;;;;;;5125425;28;20446;-49
2023/07/31 10:30:29;;;;;;;2.30;1.90;;;20.20;99.90;;;;;;5127425;28;20422;-50
2023/07/31 10:33:00;;;;;;;2.60;2.40;;;19.80;99.90;;;;;;5121375;28;20181;-49
2023/07/31 10:35:31;;;;;;;4.10;3.23;;;19.80;99.90;;;;;;5122957;28;20452;-48
2023/07/31 10:38:12;;;;;;;7.70;2.37;;;19.90;99.90;;;;;;5118635;28;20829;-49
2023/07/31 10:40:44;;;;;;;2.73;2.50;;;20.10;99.90;;;;;;5120525;28;20203;-49
2023/07/31 10:43:26;;;;;;;4.80;2.90;;;20.30;99.90;;;;;;5121274;28;20453;-48
2023/07/31 10:45:57;;;;;;;5.03;2.60;;;20.20;99.90;;;;;;5123683;28;20437;-49
2023/07/31 10:48:34;;;;;;;6.63;3.40;;;20.10;99.90;;;;;;5127259;28;20442;-49
2023/07/31 10:51:10;;;;;;;4.73;3.40;;;20.10;99.90;;;;;;5122621;29;20446;-47
2023/07/31 10:53:41;;;;;;;6.87;2.93;;;20.40;99.90;;;;;;5120163;28;20433;-48
2023/07/31 10:56:18;;;;;;;4.90;3.30;;;20.70;99.90;;;;;;5119950;28;20437;-48
2023/07/31 10:59:01;;;;;;;5.07;3.43;;;21.20;99.90;;;;;;5125766;28;20465;-48
2023/07/31 11:01:51;;;;;;;5.53;3.10;;;21.80;99.90;;;;;;5123548;28;20978;-50
2023/07/31 11:04:26;;;;;;;2.80;2.60;;;22.40;99.90;;;;;;5123562;28;20445;-48
2023/07/31 11:06:59;;;;;;;3.90;3.27;;;22.80;99.90;;;;;;5119521;28;20498;-48
2023/07/31 11:09:32;;;;;;;3.00;2.80;;;23.00;99.90;;;;;;5118160;28;20430;-48
2023/07/31 11:12:03;;;;;;;7.63;4.60;;;23.30;99.90;;;;;;5113701;28;20451;-49
2023/07/31 11:14:33;;;;;;;5.10;3.20;;;23.20;99.90;;;;;;5114557;28;20441;-49
2023/07/31 11:17:07;;;;;;;3.20;3.00;;;23.30;99.90;;;;;;5111038;28;20570;-49
2023/07/31 11:19:38;;;;;;;4.27;2.90;;;23.10;99.90;;;;;;5117216;29;20199;-48
2023/07/31 11:22:09;;;;;;;5.37;2.60;;;22.90;99.90;;;;;;5119635;28;20474;-49
2023/07/31 11:24:39;;;;;;;5.37;3.60;;;22.80;99.90;;;;;;5113801;28;20187;-49
2023/07/31 11:27:10;;;;;;;11.87;2.77;;;22.80;99.90;;;;;;5113882;28;20209;-49
2023/07/31 11:29:41;;;;;;;3.53;3.23;;;22.50;99.90;;;;;;5123090;28;20202;-48
2023/07/31 11:32:17;;;;;;;4.30;2.83;;;22.50;99.90;;;;;;5127332;28;20740;-48
2023/07/31 11:34:54;;;;;;;4.70;2.40;;;22.60;99.90;;;;;;5116079;28;20205;-47
2023/07/31 11:37:42;;;;;;;5.07;2.77;;;22.60;99.90;;;;;;5115391;28;20465;-49
2023/07/31 11:40:13;;;;;;;5.40;3.47;;;22.50;99.90;;;;;;5112874;28;20473;-49
2023/07/31 11:42:43;;;;;;;5.10;2.60;;;22.50;99.90;;;;;;5112734;28;20530;-49
2023/07/31 11:45:14;;;;;;;8.43;3.67;;;22.20;99.90;;;;;;5123742;28;20249;-48
2023/07/31 11:47:45;;;;;;;3.73;3.40;;;22.20;99.90;;;;;;5118925;28;20210;-49
2023/07/31 11:50:16;;;;;;;3.57;3.30;;;21.80;99.90;;;;;;5125062;28;20289;-49
2023/07/31 11:52:51;;;;;;;4.20;3.00;;;21.80;99.90;;;;;;5122103;28;20485;-49
2023/07/31 11:55:23;;;;;;;4.40;3.30;;;22.00;99.90;;;;;;5117185;28;20452;-50
2023/07/31 11:57:57;;;;;;;5.40;2.40;;;22.10;99.90;;;;;;5097453;29;20457;-51
2023/07/31 12:00:28;;;;;;;2.87;2.67;;;22.00;99.90;;;;;;5116102;28;20475;-50
2023/07/31 12:02:59;;;;;;;6.13;3.80;;;22.10;99.90;;;;;;5119395;28;20444;-50
2023/07/31 12:05:30;;;;;;;3.30;3.07;;;22.10;99.90;;;;;;5122574;28;20686;-50
2023/07/31 12:08:08;;;;;;;4.70;3.00;;;22.20;99.90;;;;;;5116703;28;20294;-48
2023/07/31 12:10:40;;;;;;;8.37;2.80;;;22.20;99.90;;;;;;5111940;28;20446;-50
2023/07/31 12:13:19;;;;;;;4.40;3.13;;;22.10;99.90;;;;;;5118040;28;20450;-50
2023/07/31 12:15:56;;;;;;;2.60;2.40;;;22.10;99.90;;;;;;5108273;28;20471;-49
2023/07/31 12:18:29;;;;;;;4.10;3.10;;;22.00;99.90;;;;;;5114299;28;20864;-49
2023/07/31 12:21:02;;;;;;;3.57;3.10;;;21.80;99.90;;;;;;5118068;28;21036;-49
2023/07/31 12:23:35;;;;;;;8.23;3.30;;;21.80;99.90;;;;;;5115821;28;21143;-51
2023/07/31 12:26:16;;;;;;;2.77;2.47;;;21.90;99.90;;;;;;5115973;28;20462;-50
2023/07/31 12:28:49;;;;;;;3.90;3.20;;;22.10;99.90;;;;;;5113657;28;20626;-51
2023/07/31 12:31:27;;;;;;;7.40;2.97;;;22.50;99.90;;;;;;5113981;29;20525;-48
2023/07/31 12:33:57;;;;;;;6.87;3.07;;;22.90;99.90;;;;;;5112278;28;20446;-50
2023/07/31 12:36:30;;;;;;;5.27;4.00;;;23.10;99.90;;;;;;5120065;28;20496;-51
2023/07/31 12:39:01;;;;;;;9.80;3.73;;;23.00;99.90;;;;;;5123452;28;20217;-48
2023/07/31 12:41:31;;;;;;;3.93;3.30;;;22.90;99.90;;;;;;5118729;28;20564;-48
2023/07/31 12:44:03;;;;;;;3.10;2.47;;;22.90;99.90;;;;;;5122168;28;20194;-48
2023/07/31 12:46:33;;;;;;;2.20;2.00;;;23.20;99.90;;;;;;5124572;28;20183;-49
2023/07/31 12:49:04;;;;;;;3.53;2.10;;;23.40;99.90;;;;;;5116848;28;20939;-52
2023/07/31 12:51:35;;;;;;;4.53;2.80;;;23.70;99.90;;;;;;5130215;28;20274;-49
2023/07/31 12:54:06;;;;;;;2.27;2.13;;;23.50;99.90;;;;;;5118694;28;20731;-50
2023/07/31 12:56:36;;;;;;;6.37;2.40;;;23.90;99.90;;;;;;5126825;28;20194;-50
2023/07/31 12:59:07;;;;;;;3.40;3.10;;;24.10;99.90;;;;;;5125276;28;20253;-50
2023/07/31 13:01:38;;;;;;;4.07;2.80;;;24.00;99.90;;;;;;5110522;28;20214;-49
2023/07/31 13:04:08;;;;;;;2.57;2.00;;;23.80;99.90;;;;;;5121012;29;20186;-49
2023/07/31 13:06:39;;;;;;;2.43;2.13;;;23.40;99.90;;;;;;5110452;28;20535;-50
2023/07/31 13:09:10;;;;;;;3.70;2.67;;;23.40;99.90;;;;;;5118253;28;20253;-48